Time;durP1;ratioP1;P1;durP2;ratioP2;P2;SDS_P1;SDS_P2;PMS_P1;PMS_P2;Temp;Humidity;BMP_temperature;BMP_pressure;BME280_temperature;BME280_humidity;BME280_pressure;Samples;Min_cycle;Max_cycle;Signal;HPM_P1;HPM_P2
2022/04/08 00:01:22;;;;;;;;;;;;;;;15.90;47.44;97989.66;4426434;32;19985;-77
2022/04/08 00:03:49;;;;;;;;;;;;;;;15.71;47.95;98006.88;4445739;32;20429;-81
2022/04/08 00:06:16;;;;;;;;;;;;;;;15.74;47.77;98007.59;4445435;32;19970;-82
2022/04/08 00:08:44;;;;;;;;;;;;;;;15.66;47.88;98009.56;4442498;32;20045;-80
2022/04/08 00:11:13;;;;;;;;;;;;;;;15.61;47.95;98023.69;4445549;32;19989;-78
2022/04/08 00:13:40;;;;;;;;;;;;;;;15.50;48.09;98003.19;4431595;32;19999;-80
2022/04/08 00:16:07;;;;;;;;;;;;;;;15.46;48.00;98014.63;4445693;32;19984;-81
2022/04/08 00:18:35;;;;;;;;;;;;;;;15.53;48.02;98019.56;4417771;32;19997;-75
2022/04/08 00:21:02;;;;;;;;;;;;;;;15.47;48.26;98016.31;4444217;32;20008;-77
2022/04/08 00:23:28;;;;;;;;;;;;;;;15.51;48.19;98010.13;4438066;32;19989;-79
2022/04/08 00:25:55;;;;;;;;;;;;;;;15.31;48.70;98001.16;4431175;32;19981;-77
2022/04/08 00:28:22;;;;;;;;;;;;;;;15.28;48.95;98014.34;4419018;32;19997;-82
2022/04/08 00:30:49;;;;;;;;;;;;;;;15.27;49.11;97994.38;4445918;32;19997;-79
2022/04/08 00:33:16;;;;;;;;;;;;;;;15.09;49.78;98002.75;4443606;32;20020;-78
2022/04/08 00:35:43;;;;;;;;;;;;;;;15.19;49.64;98019.84;4438794;32;20051;-76
2022/04/08 00:38:10;;;;;;;;;;;;;;;15.22;49.58;98022.34;4445465;32;20004;-78
2022/04/08 00:40:37;;;;;;;;;;;;;;;15.01;49.97;98025.63;4445642;32;20123;-77
2022/04/08 00:43:14;;;;;;;;;;;;;;;15.08;49.89;98027.13;4444939;32;20028;-83
2022/04/08 00:45:41;;;;;;;;;;;;;;;15.06;50.04;98008.94;4445322;32;19997;-79
2022/04/08 00:48:08;;;;;;;;;;;;;;;15.11;50.11;98003.56;4445097;32;19985;-80
2022/04/08 00:50:36;;;;;;;;;;;;;;;15.13;50.01;98008.75;4444849;32;19991;-76
2022/04/08 00:53:04;;;;;;;;;;;;;;;15.07;50.17;98020.22;4443225;32;19992;-82
2022/04/08 00:55:32;;;;;;;;;;;;;;;15.14;50.12;98031.31;4447645;32;19997;-81
2022/04/08 00:58:02;;;;;;;;;;;;;;;15.08;50.51;98027.13;4445372;32;20032;-78
2022/04/08 01:00:34;;;;;;;;;;;;;;;15.17;49.94;98026.00;4446082;32;20004;-76
2022/04/08 01:03:02;;;;;;;;;;;;;;;15.10;50.08;98022.72;4445913;32;19985;-76
2022/04/08 01:05:28;;;;;;;;;;;;;;;15.26;49.69;98021.34;4446889;32;19995;-80
2022/04/08 01:07:55;;;;;;;;;;;;;;;15.13;50.08;98020.03;4432984;32;20589;-80
2022/04/08 01:10:22;;;;;;;;;;;;;;;15.06;49.97;98027.19;4432408;32;20028;-74
2022/04/08 01:12:49;;;;;;;;;;;;;;;14.91;50.46;98035.47;4447254;32;19980;-77
2022/04/08 01:15:17;;;;;;;;;;;;;;;14.92;50.15;98033.72;4447727;32;19965;-79
2022/04/08 01:17:44;;;;;;;;;;;;;;;14.88;50.17;98039.00;4445420;32;19982;-77
2022/04/08 01:20:11;;;;;;;;;;;;;;;14.88;50.21;98036.41;4445791;32;20485;-80
2022/04/08 01:22:38;;;;;;;;;;;;;;;14.94;49.69;98039.75;4433962;32;20065;-76
2022/04/08 01:25:06;;;;;;;;;;;;;;;14.86;49.82;98046.00;4446582;32;20703;-81
2022/04/08 01:27:35;;;;;;;;;;;;;;;14.75;50.15;98045.50;4447219;32;19977;-80
2022/04/08 01:30:03;;;;;;;;;;;;;;;14.47;51.25;98048.00;4447100;32;20040;-77
2022/04/08 01:32:29;;;;;;;;;;;;;;;14.58;50.85;98058.16;4445231;32;20089;-80
2022/04/08 01:34:56;;;;;;;;;;;;;;;14.54;51.23;98069.56;4447146;32;20037;-75
2022/04/08 01:37:23;;;;;;;;;;;;;;;14.07;52.50;98071.66;4445500;32;20039;-80
2022/04/08 01:39:50;;;;;;;;;;;;;;;14.71;51.00;98084.69;4444879;32;19992;-75
2022/04/08 01:42:22;;;;;;;;;;;;;;;14.70;51.17;98099.47;4445718;32;19982;-79
2022/04/08 01:44:49;;;;;;;;;;;;;;;14.76;50.71;98099.28;4433009;32;19981;-78
2022/04/08 01:47:16;;;;;;;;;;;;;;;14.77;50.66;98111.44;4432984;32;20040;-74
2022/04/08 01:49:43;;;;;;;;;;;;;;;14.71;50.70;98115.94;3603333;32;10001588;-79
2022/04/08 01:52:10;;;;;;;;;;;;;;;14.79;50.88;98122.66;4434231;32;20014;-78
2022/04/08 01:54:37;;;;;;;;;;;;;;;14.77;50.92;98121.84;4444393;32;19986;-74
2022/04/08 01:57:04;;;;;;;;;;;;;;;14.80;50.83;98116.53;4447013;32;19985;-80
2022/04/08 01:59:31;;;;;;;;;;;;;;;14.86;50.82;98116.34;4446681;32;19989;-79
2022/04/08 02:01:59;;;;;;;;;;;;;;;14.85;50.75;98119.00;4445599;32;19969;-75
2022/04/08 02:04:27;;;;;;;;;;;;;;;14.78;50.91;98113.13;4446273;32;20326;-78
2022/04/08 02:06:54;;;;;;;;;;;;;;;14.78;50.94;98118.34;4432909;32;19981;-77
2022/04/08 02:09:21;;;;;;;;;;;;;;;14.80;50.72;98126.09;4447722;32;19995;-79
2022/04/08 02:11:47;;;;;;;;;;;;;;;14.71;51.14;98150.69;4445983;32;20814;-83
2022/04/08 02:14:15;;;;;;;;;;;;;;;14.76;50.80;98156.59;4446493;32;19985;-80
2022/04/08 02:16:42;;;;;;;;;;;;;;;14.75;50.98;98154.91;4446787;32;20003;-76
2022/04/08 02:19:09;;;;;;;;;;;;;;;14.65;51.24;98169.91;4447051;32;20030;-77
2022/04/08 02:21:36;;;;;;;;;;;;;;;14.60;51.32;98170.94;4431374;32;19981;-77
2022/04/08 02:24:03;;;;;;;;;;;;;;;14.67;51.15;98156.84;4421283;32;20870;-78
2022/04/08 02:26:30;;;;;;;;;;;;;;;14.60;51.21;98160.50;4423289;32;20000;-76
2022/04/08 02:28:58;;;;;;;;;;;;;;;14.80;50.99;98153.00;4421203;32;19981;-79
2022/04/08 02:31:25;;;;;;;;;;;;;;;14.70;50.91;98125.50;4416154;32;19973;-76
2022/04/08 02:33:52;;;;;;;;;;;;;;;14.30;52.02;98118.78;4412576;32;19981;-80
2022/04/08 02:36:19;;;;;;;;;;;;;;;14.49;51.60;98139.09;4433845;32;20032;-80
2022/04/08 02:38:45;;;;;;;;;;;;;;;14.52;51.58;98146.88;4431448;32;20350;-76
2022/04/08 02:41:12;;;;;;;;;;;;;;;14.63;51.09;98155.22;4433945;32;19969;-78
2022/04/08 02:43:39;;;;;;;;;;;;;;;14.62;50.91;98158.72;4434023;32;20338;-76
2022/04/08 02:46:06;;;;;;;;;;;;;;;14.61;50.72;98162.22;4430989;32;20772;-80
2022/04/08 02:48:33;;;;;;;;;;;;;;;14.40;51.07;98163.63;4440352;32;19986;-77
2022/04/08 02:51:00;;;;;;;;;;;;;;;14.54;50.70;98173.69;4459808;32;20568;-78
2022/04/08 02:53:27;;;;;;;;;;;;;;;14.62;50.20;98179.56;4456631;32;20064;-82
2022/04/08 02:55:53;;;;;;;;;;;;;;;14.54;50.55;98186.72;4462177;32;19984;-76
2022/04/08 02:58:20;;;;;;;;;;;;;;;14.54;50.61;98197.13;4461757;32;20070;-82
2022/04/08 03:00:47;;;;;;;;;;;;;;;14.54;50.63;98208.41;4461867;32;19977;-80
2022/04/08 03:03:14;;;;;;;;;;;;;;;14.48;50.93;98223.28;4460481;32;20063;-79
2022/04/08 03:05:42;;;;;;;;;;;;;;;14.28;51.84;98237.66;4446904;32;20041;-78
2022/04/08 03:08:08;;;;;;;;;;;;;;;14.35;51.62;98223.59;4462521;32;19985;-81
2022/04/08 03:10:35;;;;;;;;;;;;;;;14.35;51.68;98228.81;4426252;32;20002;-83
2022/04/08 03:13:02;;;;;;;;;;;;;;;14.43;51.64;98237.28;4445762;32;20044;-75
2022/04/08 03:15:29;;;;;;;;;;;;;;;14.37;51.75;98240.03;4446688;32;19981;-75
2022/04/08 03:17:56;;;;;;;;;;;;;;;14.34;51.69;98231.47;4445718;32;19993;-80
2022/04/08 03:20:23;;;;;;;;;;;;;;;14.38;51.56;98233.94;4445931;32;20011;-78
2022/04/08 03:22:50;;;;;;;;;;;;;;;14.30;52.06;98235.88;4431871;32;19992;-82
2022/04/08 03:25:19;;;;;;;;;;;;;;;14.40;52.08;98253.00;4446288;32;19989;-79
2022/04/08 03:27:46;;;;;;;;;;;;;;;14.35;52.25;98249.63;4446507;32;20327;-75
2022/04/08 03:30:13;;;;;;;;;;;;;;;14.53;52.01;98257.91;4443096;32;19977;-80
2022/04/08 03:32:39;;;;;;;;;;;;;;;14.35;51.73;98256.59;4441995;32;20056;-78
2022/04/08 03:35:07;;;;;;;;;;;;;;;14.37;51.22;98257.41;4446509;32;19997;-80
2022/04/08 03:37:33;;;;;;;;;;;;;;;14.31;51.45;98268.81;4445800;32;19985;-79
2022/04/08 03:40:00;;;;;;;;;;;;;;;14.37;51.23;98273.88;4445896;32;19977;-77
2022/04/08 03:42:29;;;;;;;;;;;;;;;14.12;52.49;98288.38;4446073;32;19981;-78
2022/04/08 03:44:56;;;;;;;;;;;;;;;14.35;51.78;98286.06;4445650;32;19985;-80
2022/04/08 03:47:23;;;;;;;;;;;;;;;14.19;52.55;98295.13;4445399;32;19985;-79
2022/04/08 03:49:50;;;;;;;;;;;;;;;14.31;52.74;98297.47;4435212;32;19973;-81
2022/04/08 03:52:16;;;;;;;;;;;;;;;14.44;52.56;98305.81;4434397;32;19986;-83
2022/04/08 03:54:43;;;;;;;;;;;;;;;14.24;53.80;98311.50;4410541;32;20024;-77
2022/04/08 03:57:10;;;;;;;;;;;;;;;14.47;52.96;98315.31;4435047;32;20012;-81
2022/04/08 03:59:40;;;;;;;;;;;;;;;14.64;53.13;98328.81;4430558;32;19995;-83
2022/04/08 04:02:07;;;;;;;;;;;;;;;14.66;52.89;98327.03;4440843;32;20003;-78
2022/04/08 04:04:34;;;;;;;;;;;;;;;14.83;52.90;98318.78;4444512;32;19973;-77
2022/04/08 04:07:02;;;;;;;;;;;;;;;14.89;52.88;98311.66;4445638;32;19985;-77
2022/04/08 04:09:29;;;;;;;;;;;;;;;15.09;52.24;98310.28;4445773;32;19985;-81
2022/04/08 04:11:56;;;;;;;;;;;;;;;15.03;52.69;98310.47;4437480;32;19992;-83
2022/04/08 04:14:22;;;;;;;;;;;;;;;15.00;52.87;98318.38;4446314;32;19989;-81
2022/04/08 04:16:49;;;;;;;;;;;;;;;14.97;52.97;98321.91;4444609;32;20319;-79
2022/04/08 04:19:17;;;;;;;;;;;;;;;15.08;52.35;98313.78;4445662;32;19987;-86
2022/04/08 04:21:44;;;;;;;;;;;;;;;14.75;53.00;98326.81;4431037;32;19989;-77
2022/04/08 04:24:11;;;;;;;;;;;;;;;14.94;52.21;98332.41;4443869;32;20289;-82
2022/04/08 04:26:38;;;;;;;;;;;;;;;14.68;52.27;98340.88;4447659;32;19991;-81
2022/04/08 04:29:05;;;;;;;;;;;;;;;14.93;52.11;98340.25;4447364;32;20018;-74
2022/04/08 04:31:31;;;;;;;;;;;;;;;14.98;51.65;98325.34;4447560;32;20035;-79
2022/04/08 04:33:59;;;;;;;;;;;;;;;14.88;51.19;98338.63;4446397;32;19985;-80
2022/04/08 04:36:25;;;;;;;;;;;;;;;14.77;51.18;98350.19;4440758;32;20021;-77
2022/04/08 04:38:52;;;;;;;;;;;;;;;14.61;51.25;98342.78;4445160;32;19973;-74
2022/04/08 04:41:20;;;;;;;;;;;;;;;14.71;50.24;98346.00;4447255;32;20408;-78
2022/04/08 04:43:46;;;;;;;;;;;;;;;14.77;49.02;98356.28;4445752;32;20008;-78
2022/04/08 04:46:17;;;;;;;;;;;;;;;14.43;49.92;98357.03;4244039;32;10000684;-81
2022/04/08 04:48:44;;;;;;;;;;;;;;;14.57;49.26;98351.53;4427454;32;19989;-78
2022/04/08 04:51:13;;;;;;;;;;;;;;;14.98;46.76;98365.28;4446997;32;20280;-80
2022/04/08 04:53:40;;;;;;;;;;;;;;;14.67;45.62;98365.19;4437290;32;20311;-75
2022/04/08 04:56:08;;;;;;;;;;;;;;;14.62;43.23;98374.88;4438955;32;20391;-81
2022/04/08 04:58:35;;;;;;;;;;;;;;;14.79;43.57;98382.28;4432645;32;20003;-73
2022/04/08 05:01:02;;;;;;;;;;;;;;;14.95;42.23;98390.56;4446096;32;20765;-73
2022/04/08 05:03:29;;;;;;;;;;;;;;;14.58;43.49;98400.13;4442388;32;19985;-81
2022/04/08 05:05:56;;;;;;;;;;;;;;;14.56;43.22;98403.66;4440108;32;20013;-78
2022/04/08 05:08:22;;;;;;;;;;;;;;;14.99;42.27;98397.41;4431945;32;20387;-78
2022/04/08 05:10:49;;;;;;;;;;;;;;;15.21;41.71;98398.56;4446807;32;20027;-80
2022/04/08 05:13:16;;;;;;;;;;;;;;;15.03;41.14;98404.28;4446495;32;20068;-79
2022/04/08 05:15:45;;;;;;;;;;;;;;;15.00;40.68;98389.56;4446311;32;19985;-82
2022/04/08 05:18:12;;;;;;;;;;;;;;;15.03;42.04;98399.06;4440293;32;20038;-81
2022/04/08 05:20:39;;;;;;;;;;;;;;;14.93;42.98;98405.38;4432526;32;20314;-82
2022/04/08 05:23:05;;;;;;;;;;;;;;;14.88;42.56;98406.34;4447165;32;19989;-75
2022/04/08 05:25:32;;;;;;;;;;;;;;;14.89;42.64;98415.03;4446883;32;20020;-79
2022/04/08 05:27:59;;;;;;;;;;;;;;;14.98;42.06;98417.41;4431845;32;19973;-76
2022/04/08 05:30:26;;;;;;;;;;;;;;;15.04;40.98;98419.00;4446202;32;20017;-76
2022/04/08 05:32:55;;;;;;;;;;;;;;;15.05;39.95;98423.31;4431955;32;19993;-78
2022/04/08 05:35:21;;;;;;;;;;;;;;;15.08;39.61;98424.09;4362983;32;20296;-75
2022/04/08 05:37:49;;;;;;;;;;;;;;;14.94;40.32;98435.78;4415574;32;20020;-73
2022/04/08 05:40:16;;;;;;;;;;;;;;;14.63;40.06;98436.47;4436903;32;20023;-78
2022/04/08 05:42:44;;;;;;;;;;;;;;;14.69;38.99;98441.53;4446155;32;19993;-75
2022/04/08 05:45:11;;;;;;;;;;;;;;;14.95;38.12;98453.09;4440859;32;20045;-81
2022/04/08 05:47:38;;;;;;;;;;;;;;;14.82;41.03;98442.12;4429694;32;20026;-73
2022/04/08 05:50:07;;;;;;;;;;;;;;;14.77;39.63;98439.63;4440538;32;20250;-75
2022/04/08 05:52:34;;;;;;;;;;;;;;;15.08;38.67;98449.31;4428857;32;19989;-78
2022/04/08 05:55:01;;;;;;;;;;;;;;;14.91;39.50;98456.69;4432121;32;20029;-80
2022/04/08 05:57:32;;;;;;;;;;;;;;;15.04;38.67;98473.75;4434422;32;19993;-80
2022/04/08 05:59:59;;;;;;;;;;;;;;;14.92;38.20;98472.28;4445996;32;20443;-80
2022/04/08 06:02:26;;;;;;;;;;;;;;;14.80;38.71;98460.38;4444589;32;20659;-76
2022/04/08 06:04:53;;;;;;;;;;;;;;;14.39;38.87;98485.59;4445773;32;20357;-79
2022/04/08 06:07:22;;;;;;;;;;;;;;;14.49;39.59;98495.81;4442497;32;19973;-74
2022/04/08 06:09:49;;;;;;;;;;;;;;;14.76;37.83;98500.41;4444427;32;20001;-74
2022/04/08 06:12:16;;;;;;;;;;;;;;;14.70;37.99;98515.34;4444931;32;19985;-77
2022/04/08 06:14:42;;;;;;;;;;;;;;;14.80;36.13;98533.31;4446767;32;20038;-75
2022/04/08 06:17:09;;;;;;;;;;;;;;;14.80;35.66;98535.06;4435790;32;20365;-73
2022/04/08 06:19:36;;;;;;;;;;;;;;;15.09;35.76;98539.63;4445829;32;20000;-78
2022/04/08 06:22:03;;;;;;;;;;;;;;;14.75;36.39;98535.19;4450918;32;19989;-78
2022/04/08 06:24:29;;;;;;;;;;;;;;;15.09;36.69;98519.66;4462032;32;19998;-76
2022/04/08 06:26:56;;;;;;;;;;;;;;;15.34;35.92;98525.13;4461601;32;20752;-79
2022/04/08 06:29:23;;;;;;;;;;;;;;;15.44;35.61;98532.72;4461669;32;19993;-78
2022/04/08 06:31:50;;;;;;;;;;;;;;;15.07;37.00;98529.25;4462384;32;19993;-73
2022/04/08 06:34:17;;;;;;;;;;;;;;;15.14;36.09;98527.34;4455741;32;20026;-75
2022/04/08 06:36:44;;;;;;;;;;;;;;;15.48;36.29;98532.63;4440939;32;19973;-79
2022/04/08 06:39:11;;;;;;;;;;;;;;;15.98;35.33;98524.41;4441586;32;20375;-74
2022/04/08 06:41:38;;;;;;;;;;;;;;;15.57;36.10;98515.84;4438855;32;19989;-78
2022/04/08 06:44:05;;;;;;;;;;;;;;;15.28;35.64;98529.63;4439128;32;20064;-77
2022/04/08 06:46:31;;;;;;;;;;;;;;;16.00;34.76;98533.06;4448832;32;19981;-80
2022/04/08 06:49:02;;;;;;;;;;;;;;;16.08;33.46;98527.59;4446919;32;19985;-81
2022/04/08 06:51:30;;;;;;;;;;;;;;;16.48;33.91;98522.13;4456942;32;20072;-78
2022/04/08 06:53:57;;;;;;;;;;;;;;;16.77;33.11;98544.81;4450865;32;19981;-76
2022/04/08 06:56:23;;;;;;;;;;;;;;;16.54;32.86;98532.41;4139743;32;10000439;-83
2022/04/08 06:58:50;;;;;;;;;;;;;;;16.31;32.44;98543.50;4445640;32;19982;-76
2022/04/08 07:01:17;;;;;;;;;;;;;;;16.40;32.02;98535.44;4447013;32;20008;-78
2022/04/08 07:03:44;;;;;;;;;;;;;;;16.56;32.20;98538.44;4451666;32;19981;-72
2022/04/08 07:06:11;;;;;;;;;;;;;;;16.55;32.54;98539.34;4446735;32;20034;-78
2022/04/08 07:08:38;;;;;;;;;;;;;;;16.55;33.54;98539.34;4452247;32;20001;-79
2022/04/08 07:11:05;;;;;;;;;;;;;;;17.13;33.21;98537.63;4451743;32;20037;-78
2022/04/08 07:13:31;;;;;;;;;;;;;;;17.24;31.88;98518.12;4424254;32;20022;-77
2022/04/08 07:15:58;;;;;;;;;;;;;;;17.07;33.43;98527.34;4445699;32;19981;-76
2022/04/08 07:18:25;;;;;;;;;;;;;;;17.35;32.32;98552.59;4435117;32;19981;-80
2022/04/08 07:20:52;;;;;;;;;;;;;;;17.20;31.14;98554.81;4461783;32;19989;-80
2022/04/08 07:23:18;;;;;;;;;;;;;;;17.27;31.88;98565.09;4459898;32;19992;-75
2022/04/08 07:25:45;;;;;;;;;;;;;;;17.44;31.85;98552.31;4452108;32;20449;-82
2022/04/08 07:28:12;;;;;;;;;;;;;;;17.91;30.74;98549.91;4446421;32;19965;-82
2022/04/08 07:30:39;;;;;;;;;;;;;;;17.95;32.21;98548.91;4446532;32;19985;-80
2022/04/08 07:33:06;;;;;;;;;;;;;;;18.57;29.91;98548.41;4445909;32;20732;-75
2022/04/08 07:35:33;;;;;;;;;;;;;;;18.47;31.55;98552.25;4453229;32;19995;-77
2022/04/08 07:38:00;;;;;;;;;;;;;;;18.81;30.40;98557.16;4431893;32;19981;-79
2022/04/08 07:40:27;;;;;;;;;;;;;;;18.99;28.61;98550.34;4439929;32;19994;-81
2022/04/08 07:42:54;;;;;;;;;;;;;;;18.72;29.72;98556.59;4447743;32;19992;-80
2022/04/08 07:45:24;;;;;;;;;;;;;;;18.40;29.93;98558.66;4446890;32;20027;-78
2022/04/08 07:47:51;;;;;;;;;;;;;;;18.00;29.41;98567.94;4432562;32;20456;-78
2022/04/08 07:50:18;;;;;;;;;;;;;;;18.37;29.40;98561.37;4449457;32;20449;-73
2022/04/08 07:52:45;;;;;;;;;;;;;;;17.82;28.54;98556.31;4428222;32;19978;-73
2022/04/08 07:55:12;;;;;;;;;;;;;;;17.50;28.61;98552.13;4431397;32;20037;-79
2022/04/08 07:57:46;;;;;;;;;;;;;;;17.41;27.19;98552.41;4432637;32;19989;-82
2022/04/08 08:00:14;;;;;;;;;;;;;;;17.93;27.02;98545.47;4446042;32;19978;-79
2022/04/08 08:02:42;;;;;;;;;;;;;;;17.77;26.03;98533.81;4430817;32;19995;-80
2022/04/08 08:05:09;;;;;;;;;;;;;;;17.56;27.13;98546.69;4438139;32;19981;-83
2022/04/08 08:08:17;;;;;;;;;;;;;;;17.33;28.34;98554.44;4437192;32;19978;-83
2022/04/08 08:10:46;;;;;;;;;;;;;;;17.45;27.19;98564.47;4430612;32;19978;-75
2022/04/08 08:13:13;;;;;;;;;;;;;;;17.24;26.85;98554.72;4445802;32;19973;-81
2022/04/08 08:15:41;;;;;;;;;;;;;;;17.36;27.46;98554.34;4440136;32;19981;-82
2022/04/08 08:18:08;;;;;;;;;;;;;;;17.52;27.38;98568.63;4445512;32;19991;-78
2022/04/08 08:20:36;;;;;;;;;;;;;;;16.99;29.08;98571.16;4445737;32;20454;-77
2022/04/08 08:23:03;;;;;;;;;;;;;;;17.37;27.33;98587.44;4445436;32;19989;-77
2022/04/08 08:25:30;;;;;;;;;;;;;;;17.60;27.89;98611.09;4431311;32;20008;-79
2022/04/08 08:28:07;;;;;;;;;;;;;;;17.89;26.81;98609.31;4445601;32;20007;-78
2022/04/08 08:30:35;;;;;;;;;;;;;;;17.96;26.61;98608.19;4445146;32;20348;-78
2022/04/08 08:33:04;;;;;;;;;;;;;;;17.28;27.30;98621.72;4433259;32;19986;-71
2022/04/08 08:35:32;;;;;;;;;;;;;;;17.47;27.05;98640.31;4445458;32;20007;-73
2022/04/08 08:37:59;;;;;;;;;;;;;;;17.08;29.17;98633.62;4431191;32;19970;-78
2022/04/08 08:40:26;;;;;;;;;;;;;;;17.23;29.75;98628.84;4445109;32;20354;-77
2022/04/08 08:42:53;;;;;;;;;;;;;;;17.50;28.18;98635.84;4441364;32;19977;-79
2022/04/08 08:45:20;;;;;;;;;;;;;;;17.42;28.70;98637.84;4444941;32;19983;-78
2022/04/08 08:47:48;;;;;;;;;;;;;;;17.18;28.47;98644.69;4444708;32;19995;-78
2022/04/08 08:50:16;;;;;;;;;;;;;;;16.96;28.68;98634.00;4445721;32;19985;-76
2022/04/08 08:52:43;;;;;;;;;;;;;;;16.93;29.85;98647.16;4444422;32;19997;-76
2022/04/08 08:55:14;;;;;;;;;;;;;;;16.98;29.63;98642.66;4444221;32;20035;-79
2022/04/08 08:57:42;;;;;;;;;;;;;;;17.40;28.78;98655.34;4441206;32;20009;-84
2022/04/08 09:00:13;;;;;;;;;;;;;;;17.20;28.94;98659.44;4429972;32;20581;-79
2022/04/08 09:02:40;;;;;;;;;;;;;;;17.27;27.34;98664.47;4444826;32;19996;-74
2022/04/08 09:05:13;;;;;;;;;;;;;;;17.27;28.11;98657.47;4444902;32;19995;-74
2022/04/08 09:07:42;;;;;;;;;;;;;;;17.84;27.41;98650.53;4444593;32;19977;-78
2022/04/08 09:10:09;;;;;;;;;;;;;;;17.94;27.31;98651.91;4444063;32;20027;-76
2022/04/08 09:12:36;;;;;;;;;;;;;;;18.44;26.96;98657.22;4431570;32;20337;-83
2022/04/08 09:15:03;;;;;;;;;;;;;;;18.59;25.93;98655.81;4447148;32;19996;-76
2022/04/08 09:17:30;;;;;;;;;;;;;;;18.71;25.58;98644.03;4445759;32;19977;-77
2022/04/08 09:19:58;;;;;;;;;;;;;;;18.58;24.14;98654.09;4446102;32;19980;-75
2022/04/08 09:22:29;;;;;;;;;;;;;;;18.36;25.85;98659.22;4444524;32;19977;-75
2022/04/08 09:25:11;;;;;;;;;;;;;;;18.26;23.33;98668.31;4445330;32;20073;-82
2022/04/08 09:27:39;;;;;;;;;;;;;;;18.29;25.75;98678.69;4433177;32;20030;-80
2022/04/08 09:30:07;;;;;;;;;;;;;;;18.75;24.96;98687.59;4433037;32;20387;-77
2022/04/08 09:32:35;;;;;;;;;;;;;;;19.20;25.73;98694.69;4446560;32;20035;-77
2022/04/08 09:35:02;;;;;;;;;;;;;;;18.94;26.62;98693.91;4447074;32;20384;-80
2022/04/08 09:37:29;;;;;;;;;;;;;;;19.23;25.69;98710.31;4446513;32;19973;-79
2022/04/08 09:40:00;;;;;;;;;;;;;;;19.81;22.20;98696.75;4446413;32;20012;-81
2022/04/08 09:42:43;;;;;;;;;;;;;;;19.88;23.25;98695.63;4446781;32;20319;-78
2022/04/08 09:45:13;;;;;;;;;;;;;;;19.67;24.24;98715.69;4431527;32;20348;-80
2022/04/08 09:47:40;;;;;;;;;;;;;;;19.61;24.45;98700.16;4444758;32;20369;-77
2022/04/08 09:50:10;;;;;;;;;;;;;;;19.81;23.23;98688.88;4446987;32;20353;-84
2022/04/08 09:52:40;;;;;;;;;;;;;;;20.28;22.69;98694.81;4432260;32;19993;-78
2022/04/08 09:55:07;;;;;;;;;;;;;;;20.22;22.46;98692.44;4444971;32;19985;-79
2022/04/08 09:57:38;;;;;;;;;;;;;;;19.99;26.56;98693.41;4446518;32;19984;-79
2022/04/08 10:00:05;;;;;;;;;;;;;;;20.48;24.36;98698.37;4445776;32;20004;-81
2022/04/08 10:02:36;;;;;;;;;;;;;;;20.32;24.00;98704.28;4446648;32;20341;-79
2022/04/08 10:05:08;;;;;;;;;;;;;;;20.62;23.87;98696.91;4432759;32;20022;-79
2022/04/08 10:07:35;;;;;;;;;;;;;;;20.38;23.33;98698.75;4446782;32;19973;-77
2022/04/08 10:10:07;;;;;;;;;;;;;;;20.19;23.63;98688.16;4445279;32;20316;-77
2022/04/08 10:12:43;;;;;;;;;;;;;;;20.07;23.48;98687.81;4443771;32;19980;-76
2022/04/08 10:15:29;;;;;;;;;;;;;;;19.65;25.08;98707.00;4431696;32;20319;-78
2022/04/08 10:17:59;;;;;;;;;;;;;;;19.54;25.94;98703.94;4446429;32;20061;-83
2022/04/08 10:20:30;;;;;;;;;;;;;;;19.90;23.03;98702.50;4433123;32;20303;-79
2022/04/08 10:23:06;;;;;;;;;;;;;;;19.56;25.73;98707.31;4429506;32;19985;-82
2022/04/08 10:25:40;;;;;;;;;;;;;;;20.17;27.06;98707.56;4446887;32;19985;-82
2022/04/08 10:28:08;;;;;;;;;;;;;;;20.33;24.33;98713.03;4445883;32;20030;-80
2022/04/08 10:30:42;;;;;;;;;;;;;;;20.72;22.29;98710.50;4432073;32;19997;-81
2022/04/08 10:33:11;;;;;;;;;;;;;;;20.53;21.85;98717.47;4445110;32;19984;-84
2022/04/08 10:35:37;;;;;;;;;;;;;;;20.55;21.60;98710.38;4447190;32;19976;-84
2022/04/08 10:38:05;;;;;;;;;;;;;;;20.79;22.05;98708.47;4445165;32;20007;-78
2022/04/08 10:40:35;;;;;;;;;;;;;;;20.73;21.52;98709.59;4431880;32;19985;-77
2022/04/08 10:43:04;;;;;;;;;;;;;;;20.90;22.33;98707.09;4447155;32;20034;-77
2022/04/08 10:45:31;;;;;;;;;;;;;;;20.41;24.05;98708.31;4445331;32;19993;-80
2022/04/08 10:48:12;;;;;;;;;;;;;;;20.60;22.15;98705.78;4444992;32;19972;-79
2022/04/08 10:50:39;;;;;;;;;;;;;;;20.88;22.10;98703.66;4446934;32;20293;-76
2022/04/08 10:53:07;;;;;;;;;;;;;;;21.12;22.25;98695.56;4446178;32;19981;-80
2022/04/08 10:55:56;;;;;;;;;;;;;;;20.95;22.24;98704.22;4446828;32;20045;-83
2022/04/08 10:58:34;;;;;;;;;;;;;;;20.57;22.58;98716.44;4446218;32;19984;-78
2022/04/08 11:01:12;;;;;;;;;;;;;;;20.50;22.98;98699.19;4444452;32;19993;-74
2022/04/08 11:03:47;;;;;;;;;;;;;;;20.81;22.22;98702.22;4445714;32;20340;-79
2022/04/08 11:06:14;;;;;;;;;;;;;;;19.88;25.18;98714.00;4431882;32;20338;-77
2022/04/08 11:08:42;;;;;;;;;;;;;;;19.64;25.87;98716.66;4446555;32;19980;-78
2022/04/08 11:11:09;;;;;;;;;;;;;;;19.93;23.57;98707.63;4446746;32;19986;-80
2022/04/08 11:13:38;;;;;;;;;;;;;;;20.00;26.49;98702.12;4446228;32;20056;-84
2022/04/08 11:16:05;;;;;;;;;;;;;;;20.08;24.78;98713.19;4452757;32;20404;-80
2022/04/08 11:18:32;;;;;;;;;;;;;;;20.25;24.77;98708.09;4453387;32;19989;-82
2022/04/08 11:20:59;;;;;;;;;;;;;;;20.22;24.69;98723.97;4445952;32;19985;-74
2022/04/08 11:23:27;;;;;;;;;;;;;;;20.17;25.35;98720.69;4443180;32;20050;-76
2022/04/08 11:25:54;;;;;;;;;;;;;;;19.95;25.46;98726.81;4429135;32;20788;-80
2022/04/08 11:28:24;;;;;;;;;;;;;;;19.61;25.70;98736.91;4443738;32;20297;-79
2022/04/08 11:30:58;;;;;;;;;;;;;;;19.39;27.25;98731.59;4450584;32;20021;-78
2022/04/08 11:33:25;;;;;;;;;;;;;;;19.43;28.52;98731.44;4450124;32;20001;-83
2022/04/08 11:35:57;;;;;;;;;;;;;;;19.65;26.57;98722.75;4446660;32;20031;-77
2022/04/08 11:38:24;;;;;;;;;;;;;;;19.80;27.43;98730.03;4447961;32;19977;-77
2022/04/08 11:40:51;;;;;;;;;;;;;;;19.68;28.59;98722.66;4451049;32;20667;-81
2022/04/08 11:43:18;;;;;;;;;;;;;;;19.46;28.00;98718.22;4432151;32;20003;-80
2022/04/08 11:45:46;;;;;;;;;;;;;;;19.65;26.97;98721.00;4445912;32;20030;-79
2022/04/08 11:48:15;;;;;;;;;;;;;;;20.01;27.17;98724.88;4432045;32;19970;-78
2022/04/08 11:50:49;;;;;;;;;;;;;;;19.89;29.01;98715.72;4446100;32;19999;-78
2022/04/08 11:53:17;;;;;;;;;;;;;;;19.88;27.59;98712.22;4434177;32;19985;-82
2022/04/08 11:55:54;;;;;;;;;;;;;;;19.80;28.39;98716.06;4431724;32;20025;-79
2022/04/08 11:58:22;;;;;;;;;;;;;;;19.68;30.43;98707.75;4448815;32;20029;-80
2022/04/08 12:00:50;;;;;;;;;;;;;;;19.52;29.04;98696.94;4441902;32;19977;-75
2022/04/08 12:03:21;;;;;;;;;;;;;;;20.11;26.76;98699.94;4431354;32;20045;-74
2022/04/08 12:05:49;;;;;;;;;;;;;;;20.36;28.41;98705.87;4445939;32;19981;-80
2022/04/08 12:08:36;;;;;;;;;;;;;;;20.07;28.46;98703.59;4446135;32;19997;-79
2022/04/08 12:11:07;;;;;;;;;;;;;;;19.83;30.61;98705.44;4444365;32;19993;-74
2022/04/08 12:13:35;;;;;;;;;;;;;;;19.76;30.41;98696.94;4426276;32;20502;-81
2022/04/08 12:16:02;;;;;;;;;;;;;;;19.87;29.39;98694.75;4446485;32;20078;-81
2022/04/08 12:18:32;;;;;;;;;;;;;;;20.23;27.76;98678.41;4459624;32;19989;-79
2022/04/08 12:21:00;;;;;;;;;;;;;;;19.38;29.83;98667.78;4441881;32;20056;-81
2022/04/08 12:23:28;;;;;;;;;;;;;;;19.90;31.05;98670.97;4447015;32;20011;-83
2022/04/08 12:25:55;;;;;;;;;;;;;;;19.64;29.86;98668.56;4451067;32;20008;-78
2022/04/08 12:28:23;;;;;;;;;;;;;;;18.50;31.80;98662.22;4446303;32;20004;-81
2022/04/08 12:30:51;;;;;;;;;;;;;;;19.36;30.00;98660.88;4446926;32;20326;-79
2022/04/08 12:33:18;;;;;;;;;;;;;;;19.57;30.33;98659.19;4460951;32;19980;-78
2022/04/08 12:35:45;;;;;;;;;;;;;;;19.26;30.27;98663.00;4456776;32;20011;-74
2022/04/08 12:38:19;;;;;;;;;;;;;;;18.78;32.18;98653.41;4459675;32;19981;-75
2022/04/08 12:40:46;;;;;;;;;;;;;;;18.97;32.48;98662.31;4460716;32;20437;-83
2022/04/08 12:43:13;;;;;;;;;;;;;;;19.14;32.55;98645.09;4450748;32;19976;-79
2022/04/08 12:45:40;;;;;;;;;;;;;;;19.41;30.91;98628.28;4457132;32;20293;-77
2022/04/08 12:48:08;;;;;;;;;;;;;;;18.95;31.61;98611.72;4461247;32;19980;-75
2022/04/08 12:50:35;;;;;;;;;;;;;;;19.36;32.85;98622.34;4459990;32;20294;-75